CSCL Fuzhou — ELYA7 — position and weather

sailwx.info

Track history (hours):
 
Tides and Currents Weather Stations Pressure Air Temp Water Temp Dewpoint Dewpoint Depression Visibility Wind Speed Wind Dir Waves Ship Positions

CSCL Fuzhou

Last reported at 2014-Jul-27 21:33 UTC. Time now 2014-Jul-28 16:28 UTC.
Position N 01°14' E 104°02'.

Length 207.4 m; beam 29.8 m; draft 11.4 m.

Type: Ship (hazmat cat A). MMSI: 636016483.

Date/timePositionNaut miles runAvg speedWind from/ knotsBaromVisibWave heightAir tempDewpointWater temp
2014-Jul-27 21:33N 01°14' E 104°02'1212.2
2014-Jul-27 20:33N 01°12' E 103°50'7 6.5
2014-Jul-27 19:31N 01°17' E 103°46'0 0.1
2014-Jul-27 18:32N 01°17' E 103°46'0 0.0
2014-Jul-27 17:29N 01°17' E 103°46'0 0.0
2014-Jul-27 16:32N 01°17' E 103°46'0 0.0
2014-Jul-27 15:29N 01°17' E 103°46'0 0.1
2014-Jul-27 14:32N 01°17' E 103°46'0 0.1
2014-Jul-27 13:29N 01°17' E 103°46'0 0.0
2014-Jul-27 12:20N 01°17' E 103°46'0 0.0
2014-Jul-27 10:29N 01°17' E 103°46'0 0.1
2014-Jul-27 09:32N 01°17' E 103°46'0 0.0
2014-Jul-27 08:14N 01°17' E 103°46'0 0.0
2014-Jul-27 06:20N 01°17' E 103°46'0 0.0
2014-Jul-27 05:29N 01°17' E 103°46'0 0.0
2014-Jul-27 04:32N 01°17' E 103°46'0 0.1
2014-Jul-27 03:32N 01°17' E 103°46'0 0.1
2014-Jul-27 02:29N 01°17' E 103°46'0 0.1
2014-Jul-27 01:29N 01°17' E 103°46'0 0.1
2014-Jul-27 00:29N 01°17' E 103°46'0 0.0
2014-Jul-26 23:29N 01°17' E 103°46'0 0.0
2014-Jul-26 22:32N 01°17' E 103°46'0 0.1
2014-Jul-26 21:29N 01°17' E 103°46'0 0.0
2014-Jul-26 20:14N 01°17' E 103°46'0 0.1
2014-Jul-26 19:32N 01°17' E 103°46'0 0.0
2014-Jul-26 17:32N 01°17' E 103°46'0 0.0
2014-Jul-26 15:20N 01°17' E 103°46'0 0.0
2014-Jul-26 12:14N 01°17' E 103°46'0 0.0
2014-Jul-26 10:26N 01°17' E 103°46'0 0.0
2014-Jul-26 09:25N 01°17' E 103°46'3 3.9
2014-Jul-26 08:33N 01°14' E 103°47'10 9.6
2014-Jul-26 07:33N 01°15' E 103°57'9 9.1
2014-Jul-26 06:33N 01°16' E 104°06'  
Track history (hours):
 
Tides and Currents Weather Stations Pressure Air Temp Water Temp Dewpoint Dewpoint Depression Visibility Wind Speed Wind Dir Waves Ship Positions

CSCL Fuzhou

Last reported at 2014-Jul-27 21:33 UTC. Time now 2014-Jul-28 16:28 UTC.
Position N 01°14' E 104°02'.

Length 207.4 m; beam 29.8 m; draft 11.4 m.

Type: Ship (hazmat cat A). MMSI: 636016483.

Date/timePositionNaut miles runAvg speedWind from/ knotsBaromVisibWave heightAir tempDewpointWater temp
2014-Jul-27 21:33N 01°14' E 104°02'1212.2
2014-Jul-27 20:33N 01°12' E 103°50'7 6.5
2014-Jul-27 19:31N 01°17' E 103°46'0 0.1
2014-Jul-27 18:32N 01°17' E 103°46'0 0.0
2014-Jul-27 17:29N 01°17' E 103°46'0 0.0
2014-Jul-27 16:32N 01°17' E 103°46'0 0.0
2014-Jul-27 15:29N 01°17' E 103°46'0 0.1
2014-Jul-27 14:32N 01°17' E 103°46'0 0.1
2014-Jul-27 13:29N 01°17' E 103°46'0 0.0
2014-Jul-27 12:20N 01°17' E 103°46'0 0.0
2014-Jul-27 10:29N 01°17' E 103°46'0 0.1
2014-Jul-27 09:32N 01°17' E 103°46'0 0.0
2014-Jul-27 08:14N 01°17' E 103°46'0 0.0
2014-Jul-27 06:20N 01°17' E 103°46'0 0.0
2014-Jul-27 05:29N 01°17' E 103°46'0 0.0
2014-Jul-27 04:32N 01°17' E 103°46'0 0.1
2014-Jul-27 03:32N 01°17' E 103°46'0 0.1
2014-Jul-27 02:29N 01°17' E 103°46'0 0.1
2014-Jul-27 01:29N 01°17' E 103°46'0 0.1
2014-Jul-27 00:29N 01°17' E 103°46'0 0.0
2014-Jul-26 23:29N 01°17' E 103°46'0 0.0
2014-Jul-26 22:32N 01°17' E 103°46'0 0.1
2014-Jul-26 21:29N 01°17' E 103°46'0 0.0
2014-Jul-26 20:14N 01°17' E 103°46'0 0.1
2014-Jul-26 19:32N 01°17' E 103°46'0 0.0
2014-Jul-26 17:32N 01°17' E 103°46'0 0.0
2014-Jul-26 15:20N 01°17' E 103°46'0 0.0
2014-Jul-26 12:14N 01°17' E 103°46'0 0.0
2014-Jul-26 10:26N 01°17' E 103°46'0 0.0
2014-Jul-26 09:25N 01°17' E 103°46'3 3.9
2014-Jul-26 08:33N 01°14' E 103°47'10 9.6
2014-Jul-26 07:33N 01°15' E 103°57'9 9.1
2014-Jul-26 06:33N 01°16' E 104°06'  

Dump ship's entire track history